createdAt,value
2022-10-12T00:01:49.420Z,95.08
2022-10-12T00:04:16.119Z,94.81
2022-10-12T00:06:42.661Z,94.98
2022-10-12T00:09:09.601Z,95.25
2022-10-12T00:11:36.216Z,95.00
2022-10-12T00:14:02.844Z,94.78
2022-10-12T00:16:32.082Z,95.95
2022-10-12T00:18:58.713Z,96.60
2022-10-12T00:21:26.304Z,96.01
2022-10-12T00:23:56.018Z,95.69
2022-10-12T00:26:23.217Z,94.27
2022-10-12T00:28:55.243Z,95.83
2022-10-12T00:31:21.916Z,95.14
2022-10-12T00:33:48.651Z,96.75
2022-10-12T00:36:20.065Z,96.85
2022-10-12T00:38:47.745Z,96.95
2022-10-12T00:41:15.993Z,95.60
2022-10-12T00:43:43.771Z,94.46
2022-10-12T00:46:33.391Z,94.77
2022-10-12T00:49:06.863Z,95.57
2022-10-12T00:51:33.740Z,95.66
2022-10-12T00:54:06.323Z,95.10
2022-10-12T00:56:38.431Z,95.38
2022-10-12T00:59:09.700Z,94.32
2022-10-12T01:01:36.664Z,95.33
2022-10-12T01:04:04.121Z,95.32
2022-10-12T01:06:31.623Z,94.62
2022-10-12T01:08:58.723Z,94.67
2022-10-12T01:11:25.389Z,93.68
2022-10-12T01:13:51.989Z,94.91
2022-10-12T01:16:24.721Z,95.84
2022-10-12T01:19:06.529Z,95.86
2022-10-12T01:21:41.262Z,96.27
2022-10-12T01:24:34.459Z,96.05
2022-10-12T01:27:18.559Z,94.73
2022-10-12T01:30:05.195Z,94.85
2022-10-12T01:32:56.477Z,95.03
2022-10-12T01:35:35.161Z,95.11
2022-10-12T01:38:32.229Z,95.07
2022-10-12T01:41:20.178Z,94.70
2022-10-12T01:43:47.448Z,95.05
2022-10-12T01:46:17.231Z,94.49
2022-10-12T01:48:46.840Z,94.44
2022-10-12T01:51:17.251Z,95.71
2022-10-12T01:54:09.215Z,94.64
2022-10-12T01:56:45.092Z,94.96
2022-10-12T01:59:42.159Z,94.58
2022-10-12T02:02:27.173Z,94.35
2022-10-12T02:05:02.441Z,94.63
2022-10-12T02:07:42.547Z,94.71
2022-10-12T02:10:16.718Z,94.37
2022-10-12T02:12:46.004Z,94.05
2022-10-12T02:15:15.629Z,93.61
2022-10-12T02:17:45.922Z,93.66
2022-10-12T02:20:15.691Z,93.51
2022-10-12T02:22:46.622Z,94.35
2022-10-12T02:25:16.927Z,95.02
2022-10-12T02:27:47.934Z,95.14
2022-10-12T02:30:14.537Z,94.44
2022-10-12T02:32:53.180Z,95.20
2022-10-12T02:35:41.692Z,96.19
2022-10-12T02:38:17.399Z,95.96
2022-10-12T02:40:58.501Z,95.03
2022-10-12T02:43:33.158Z,95.13
2022-10-12T02:46:01.292Z,94.66
2022-10-12T02:48:29.281Z,94.31
2022-10-12T02:50:58.306Z,94.66
2022-10-12T02:53:27.474Z,93.99
2022-10-12T02:56:02.895Z,96.21
2022-10-12T02:58:29.581Z,95.50
2022-10-12T03:00:56.144Z,95.62
2022-10-12T03:03:22.855Z,94.47
2022-10-12T03:05:49.658Z,95.91
2022-10-12T03:08:16.196Z,96.41
2022-10-12T03:10:42.995Z,96.35
2022-10-12T03:13:09.563Z,96.41
2022-10-12T03:15:36.128Z,96.05
2022-10-12T03:18:02.805Z,95.10
2022-10-12T03:20:29.529Z,95.21
2022-10-12T03:22:56.180Z,94.97
2022-10-12T03:25:22.755Z,94.48
2022-10-12T03:27:49.430Z,93.79
2022-10-12T03:30:16.358Z,93.70
2022-10-12T03:32:42.872Z,94.89
2022-10-12T03:35:10.140Z,95.59
2022-10-12T03:37:37.061Z,95.02
2022-10-12T03:40:04.557Z,94.01
2022-10-12T03:42:31.181Z,96.54
2022-10-12T03:44:57.745Z,97.83
2022-10-12T03:47:24.262Z,97.78
2022-10-12T03:49:50.779Z,98.76
2022-10-12T03:52:17.324Z,97.99
2022-10-12T03:54:43.916Z,96.32
2022-10-12T03:57:10.533Z,96.28
2022-10-12T03:59:37.040Z,96.37
2022-10-12T04:02:03.658Z,95.89
2022-10-12T04:04:30.180Z,95.64
2022-10-12T04:06:56.774Z,94.93
2022-10-12T04:09:23.419Z,95.61
2022-10-12T04:11:50.019Z,95.14
2022-10-12T04:14:16.534Z,94.87
2022-10-12T04:16:43.087Z,95.39
2022-10-12T04:19:13.532Z,94.72
2022-10-12T04:21:40.540Z,94.31
2022-10-12T04:24:07.579Z,94.05
2022-10-12T04:26:34.308Z,93.72
2022-10-12T04:29:00.840Z,93.83
2022-10-12T04:31:27.331Z,94.53
2022-10-12T04:33:56.871Z,94.63
2022-10-12T04:36:24.000Z,94.21
2022-10-12T04:38:50.726Z,94.03
2022-10-12T04:41:17.322Z,95.33
2022-10-12T04:43:43.924Z,94.94
2022-10-12T04:46:10.665Z,94.87
2022-10-12T04:48:37.482Z,95.43
2022-10-12T04:51:05.249Z,94.48
2022-10-12T04:53:32.088Z,94.56
2022-10-12T04:56:03.559Z,95.16
2022-10-12T04:58:30.487Z,95.37
2022-10-12T05:00:57.216Z,95.83
2022-10-12T05:03:24.092Z,95.32
2022-10-12T05:05:50.818Z,95.09
2022-10-12T05:08:17.484Z,96.01
2022-10-12T05:10:44.336Z,95.43
2022-10-12T05:13:10.899Z,95.33
2022-10-12T05:15:37.472Z,94.57
2022-10-12T05:18:04.200Z,95.30
2022-10-12T05:20:30.954Z,97.14
2022-10-12T05:22:58.471Z,97.49
2022-10-12T05:25:25.246Z,97.58
2022-10-12T05:27:51.930Z,96.89
2022-10-12T05:30:18.573Z,97.70
2022-10-12T05:32:45.173Z,97.28
2022-10-12T05:35:11.748Z,96.48
2022-10-12T05:37:38.613Z,96.44
2022-10-12T05:40:06.029Z,96.07
2022-10-12T05:42:32.873Z,95.29
2022-10-12T05:44:59.471Z,96.06
2022-10-12T05:47:26.202Z,95.69
2022-10-12T05:49:52.897Z,96.79
2022-10-12T05:52:19.585Z,96.38
2022-10-12T05:54:46.250Z,96.97
2022-10-12T05:57:14.936Z,96.13
2022-10-12T05:59:42.457Z,97.84
2022-10-12T06:02:14.176Z,98.54
2022-10-12T06:04:40.923Z,98.77
2022-10-12T06:07:07.930Z,98.38
2022-10-12T06:09:35.374Z,98.71
2022-10-12T06:12:01.997Z,97.96
2022-10-12T06:14:28.596Z,97.97
2022-10-12T06:16:55.111Z,98.10
2022-10-12T06:19:22.097Z,98.58
2022-10-12T06:21:48.726Z,98.40
2022-10-12T06:24:15.376Z,98.08
2022-10-12T06:26:41.956Z,98.69
2022-10-12T06:29:08.609Z,98.02
2022-10-12T06:31:35.605Z,97.77
2022-10-12T06:34:02.235Z,98.40
2022-10-12T06:36:28.798Z,97.33
2022-10-12T06:38:55.503Z,97.29
2022-10-12T06:41:22.133Z,97.57
2022-10-12T06:43:48.824Z,98.66
2022-10-12T06:46:15.985Z,100.00
2022-10-12T06:48:42.884Z,100.00
2022-10-12T06:51:09.504Z,100.00
2022-10-12T06:53:36.678Z,99.93
2022-10-12T06:56:10.263Z,98.38
2022-10-12T06:58:37.547Z,98.99
2022-10-12T07:01:10.384Z,98.49
2022-10-12T07:03:37.359Z,98.62
2022-10-12T07:06:12.177Z,99.37
2022-10-12T07:08:39.811Z,99.80
2022-10-12T07:11:09.437Z,100.00
2022-10-12T07:13:36.211Z,100.00
2022-10-12T07:16:03.399Z,100.00
2022-10-12T07:18:30.262Z,99.75
2022-10-12T07:20:59.774Z,99.78
2022-10-12T07:23:27.413Z,100.00
2022-10-12T07:25:54.476Z,99.81
2022-10-12T07:28:22.209Z,100.00
2022-10-12T07:30:49.923Z,100.00
2022-10-12T07:33:16.721Z,100.00
2022-10-12T07:36:03.233Z,100.00
2022-10-12T07:38:30.695Z,100.00
2022-10-12T07:41:01.647Z,100.00
2022-10-12T07:43:29.246Z,100.00
2022-10-12T07:45:56.198Z,100.00
2022-10-12T07:48:23.341Z,100.00
2022-10-12T07:50:50.094Z,100.00
2022-10-12T07:53:16.679Z,100.00
2022-10-12T07:55:43.305Z,100.00
2022-10-12T07:58:10.000Z,100.00
2022-10-12T08:00:37.655Z,100.00
2022-10-12T08:03:04.724Z,100.00
2022-10-12T08:05:31.777Z,99.65
2022-10-12T08:08:00.180Z,98.49
2022-10-12T08:10:27.112Z,97.86
2022-10-12T08:12:53.878Z,97.77
2022-10-12T08:15:21.471Z,96.30
2022-10-12T08:17:48.531Z,95.10
2022-10-12T08:20:15.487Z,94.42
2022-10-12T08:22:42.273Z,94.04
2022-10-12T08:25:09.230Z,93.30
2022-10-12T08:27:36.358Z,93.11
2022-10-12T08:30:05.034Z,92.42
2022-10-12T08:32:32.859Z,91.65
2022-10-12T08:34:59.489Z,91.37
2022-10-12T08:37:26.294Z,90.94
2022-10-12T08:39:53.042Z,91.06
2022-10-12T08:42:45.571Z,88.76
2022-10-12T08:45:30.474Z,88.36
2022-10-12T08:48:15.153Z,87.46
2022-10-12T08:51:02.190Z,90.21
2022-10-12T08:53:36.269Z,89.35
2022-10-12T08:56:03.136Z,88.75
2022-10-12T08:58:33.506Z,86.90
2022-10-12T09:01:44.749Z,86.77
2022-10-12T09:04:31.351Z,88.22
2022-10-12T09:07:29.276Z,88.53
2022-10-12T09:10:33.491Z,87.70
2022-10-12T09:13:38.260Z,85.59
2022-10-12T09:16:25.331Z,85.41
2022-10-12T09:18:57.825Z,84.77
2022-10-12T09:21:27.575Z,81.61
2022-10-12T09:23:56.981Z,82.17
2022-10-12T09:26:33.633Z,81.20
2022-10-12T09:29:00.769Z,82.02
2022-10-12T09:31:33.585Z,82.03
2022-10-12T09:34:04.761Z,81.84
2022-10-12T09:36:35.530Z,80.89
2022-10-12T09:39:12.133Z,79.02
2022-10-12T09:41:44.608Z,78.91
2022-10-12T09:44:35.056Z,79.25
2022-10-12T09:47:29.235Z,80.17
2022-10-12T09:49:58.898Z,80.85
2022-10-12T09:52:42.565Z,78.27
2022-10-12T09:55:15.655Z,78.90
2022-10-12T09:57:51.836Z,78.59
2022-10-12T10:00:24.715Z,77.42
2022-10-12T10:02:52.378Z,77.23
2022-10-12T10:05:36.936Z,76.57
2022-10-12T10:08:21.665Z,78.26
2022-10-12T10:10:56.599Z,77.70
2022-10-12T10:13:29.768Z,77.09
2022-10-12T10:16:17.248Z,74.00
2022-10-12T10:18:54.860Z,75.26
2022-10-12T10:21:33.886Z,74.51
2022-10-12T10:24:07.282Z,72.58
2022-10-12T10:26:56.667Z,72.86
2022-10-12T10:29:23.152Z,73.71
2022-10-12T10:32:11.343Z,74.36
2022-10-12T10:34:40.818Z,72.84
2022-10-12T10:37:13.526Z,71.13
2022-10-12T10:39:48.030Z,69.39
2022-10-12T10:42:21.027Z,73.66
2022-10-12T10:45:02.468Z,70.81
2022-10-12T10:47:32.212Z,68.28
2022-10-12T10:50:01.395Z,68.50
2022-10-12T10:52:37.005Z,70.21
2022-10-12T10:55:25.723Z,69.49
2022-10-12T10:58:28.257Z,70.93
2022-10-12T11:00:58.371Z,70.30
2022-10-12T11:03:51.488Z,70.09
2022-10-12T11:06:49.225Z,69.83
2022-10-12T11:09:29.873Z,69.88
2022-10-12T11:12:05.499Z,68.52
2022-10-12T11:14:40.336Z,67.29
2022-10-12T11:17:17.144Z,66.14
2022-10-12T11:19:51.785Z,66.18
2022-10-12T11:22:29.441Z,66.52
2022-10-12T11:25:05.577Z,66.31
2022-10-12T11:27:36.405Z,67.83
2022-10-12T11:30:12.442Z,67.80
2022-10-12T11:32:43.389Z,67.14
2022-10-12T11:35:16.517Z,65.12
2022-10-12T11:37:54.562Z,66.77
2022-10-12T11:41:00.183Z,62.20
2022-10-12T11:43:24.301Z,62.15
2022-10-12T11:45:55.390Z,61.74
2022-10-12T11:48:51.598Z,62.63
2022-10-12T11:51:18.220Z,61.41
2022-10-12T11:54:01.981Z,60.52
2022-10-12T11:56:28.467Z,61.61
2022-10-12T11:59:02.150Z,61.23
2022-10-12T12:01:46.401Z,58.36
2022-10-12T12:04:41.749Z,56.65
2022-10-12T12:07:46.522Z,56.11
2022-10-12T12:10:25.414Z,57.00
2022-10-12T12:13:13.362Z,57.22
2022-10-12T12:16:16.542Z,56.50
2022-10-12T12:19:12.989Z,57.64
2022-10-12T12:22:17.316Z,55.23
2022-10-12T12:25:05.568Z,52.71
2022-10-12T12:27:40.839Z,50.67
2022-10-12T12:30:19.726Z,52.59
2022-10-12T12:32:49.793Z,51.47
2022-10-12T12:35:26.494Z,53.24
2022-10-12T12:38:25.013Z,51.45
2022-10-12T12:40:59.023Z,51.88
2022-10-12T12:43:28.658Z,49.45
2022-10-12T12:46:05.425Z,48.05
2022-10-12T12:48:44.750Z,48.79
2022-10-12T12:51:19.616Z,47.49
2022-10-12T12:53:52.571Z,49.03
2022-10-12T12:56:37.861Z,48.79
2022-10-12T12:59:22.782Z,49.01
2022-10-12T13:02:16.949Z,46.34
2022-10-12T13:04:55.662Z,48.03
2022-10-12T13:07:47.352Z,47.03
2022-10-12T13:10:30.272Z,46.51
2022-10-12T13:12:59.843Z,47.43
2022-10-12T13:15:49.533Z,47.24
2022-10-12T13:18:45.805Z,46.85
2022-10-12T13:21:17.815Z,47.04
2022-10-12T13:23:47.999Z,46.82
2022-10-12T13:26:19.099Z,47.61
2022-10-12T13:28:48.532Z,45.99
2022-10-12T13:31:15.017Z,46.49
2022-10-12T13:34:11.743Z,45.20
2022-10-12T13:36:57.546Z,46.13
2022-10-12T13:39:24.194Z,46.17
2022-10-12T13:41:54.706Z,46.82
2022-10-12T13:44:34.382Z,46.00
2022-10-12T13:47:09.466Z,46.83
2022-10-12T13:49:43.175Z,46.97
2022-10-12T13:52:12.728Z,46.57
2022-10-12T13:54:47.529Z,46.67
2022-10-12T13:57:39.946Z,46.10
2022-10-12T14:00:16.116Z,46.46
2022-10-12T14:02:53.293Z,47.38
2022-10-12T14:05:22.821Z,47.37
2022-10-12T14:07:51.424Z,48.01
2022-10-12T14:10:44.563Z,48.00
2022-10-12T14:13:15.739Z,47.26
2022-10-12T14:15:42.629Z,48.04
2022-10-12T14:18:44.794Z,48.54
2022-10-12T14:21:26.701Z,48.18
2022-10-12T14:23:57.034Z,47.92
2022-10-12T14:26:26.596Z,48.70
2022-10-12T14:28:54.239Z,48.35
2022-10-12T14:31:48.639Z,49.04
2022-10-12T14:34:27.385Z,49.39
2022-10-12T14:37:16.867Z,48.98
2022-10-12T14:39:44.341Z,48.64
2022-10-12T14:42:21.889Z,49.38
2022-10-12T14:44:49.486Z,49.61
2022-10-12T14:47:34.726Z,48.01
2022-10-12T14:50:07.872Z,49.37
2022-10-12T14:52:44.463Z,47.85
2022-10-12T14:55:26.171Z,47.33
2022-10-12T14:57:53.506Z,47.63
2022-10-12T15:00:29.003Z,47.73
2022-10-12T15:02:55.574Z,48.17
2022-10-12T15:05:23.921Z,48.33
2022-10-12T15:07:51.776Z,49.78
2022-10-12T15:10:21.415Z,50.17
2022-10-12T15:12:48.556Z,50.45
2022-10-12T15:15:29.258Z,51.60
2022-10-12T15:17:56.771Z,52.27
2022-10-12T15:20:23.472Z,51.62
2022-10-12T15:22:50.102Z,52.02
2022-10-12T15:25:21.550Z,51.87
2022-10-12T15:27:48.419Z,52.10
2022-10-12T15:30:15.771Z,52.59
2022-10-12T15:32:42.961Z,53.19
2022-10-12T15:35:29.705Z,51.19
2022-10-12T15:37:56.351Z,51.58
2022-10-12T15:40:23.296Z,51.84
2022-10-12T15:42:50.342Z,52.85
2022-10-12T15:45:29.212Z,53.51
2022-10-12T15:47:55.858Z,54.00
2022-10-12T15:50:26.163Z,55.46
2022-10-12T15:52:53.758Z,56.32
2022-10-12T15:55:24.501Z,57.42
2022-10-12T15:57:52.068Z,57.91
2022-10-12T16:00:23.625Z,59.03
2022-10-12T16:02:50.379Z,59.95
2022-10-12T16:05:33.559Z,60.62
2022-10-12T16:08:01.655Z,61.41
2022-10-12T16:10:34.505Z,62.71
2022-10-12T16:13:01.317Z,64.20
2022-10-12T16:15:31.057Z,64.76
2022-10-12T16:17:59.447Z,65.20
2022-10-12T16:20:28.781Z,65.32
2022-10-12T16:22:55.837Z,65.82
2022-10-12T16:25:24.416Z,66.83
2022-10-12T16:27:53.273Z,67.81
2022-10-12T16:30:20.819Z,68.28
2022-10-12T16:32:47.521Z,69.00
2022-10-12T16:35:15.417Z,70.20
2022-10-12T16:37:42.084Z,70.75
2022-10-12T16:40:10.399Z,71.85
2022-10-12T16:42:37.306Z,71.99
2022-10-12T16:45:04.382Z,72.44
2022-10-12T16:47:31.035Z,73.03
2022-10-12T16:49:57.770Z,73.82
2022-10-12T16:52:25.553Z,74.50
2022-10-12T16:54:53.432Z,75.64
2022-10-12T16:57:20.233Z,75.36
2022-10-12T16:59:48.312Z,75.20
2022-10-12T17:02:17.053Z,74.82
2022-10-12T17:04:44.236Z,75.32
2022-10-12T17:07:10.930Z,75.24
2022-10-12T17:09:37.441Z,76.33
2022-10-12T17:12:04.522Z,77.20
2022-10-12T17:14:31.297Z,76.64
2022-10-12T17:16:57.843Z,77.32
2022-10-12T17:19:32.592Z,77.22
2022-10-12T17:22:01.610Z,77.62
2022-10-12T17:24:30.317Z,78.07
2022-10-12T17:26:57.719Z,77.53
2022-10-12T17:29:26.955Z,78.27
2022-10-12T17:31:54.969Z,78.74
2022-10-12T17:34:33.746Z,79.39
2022-10-12T17:37:01.997Z,80.68
2022-10-12T17:39:31.731Z,79.80
2022-10-12T17:41:58.480Z,80.15
2022-10-12T17:44:25.695Z,80.79
2022-10-12T17:46:53.979Z,80.61
2022-10-12T17:49:24.984Z,79.82
2022-10-12T17:51:51.911Z,80.30
2022-10-12T17:54:20.272Z,81.17
2022-10-12T17:56:46.982Z,80.90
2022-10-12T17:59:16.303Z,80.56
2022-10-12T18:01:43.015Z,80.87
2022-10-12T18:04:11.380Z,80.69
2022-10-12T18:06:38.705Z,80.82
2022-10-12T18:09:06.331Z,81.83
2022-10-12T18:11:34.140Z,81.90
2022-10-12T18:14:02.216Z,82.91
2022-10-12T18:16:31.898Z,82.40
2022-10-12T18:19:01.066Z,83.39
2022-10-12T18:21:29.879Z,85.44
2022-10-12T18:23:56.914Z,85.13
2022-10-12T18:26:23.504Z,84.94
2022-10-12T18:28:51.476Z,84.42
2022-10-12T18:31:23.619Z,84.74
2022-10-12T18:33:51.198Z,84.98
2022-10-12T18:36:18.537Z,84.85
2022-10-12T18:38:45.234Z,84.68
2022-10-12T18:41:15.560Z,85.14
2022-10-12T18:43:42.528Z,85.04
2022-10-12T18:46:11.591Z,85.65
2022-10-12T18:48:38.218Z,85.67
2022-10-12T18:51:22.304Z,85.83
2022-10-12T18:53:49.347Z,85.55
2022-10-12T18:56:17.182Z,86.00
2022-10-12T18:58:43.885Z,85.55
2022-10-12T19:01:19.562Z,85.36
2022-10-12T19:03:46.962Z,85.70
2022-10-12T19:06:19.107Z,85.96
2022-10-12T19:08:47.958Z,87.12
2022-10-12T19:11:17.525Z,87.17
2022-10-12T19:13:50.739Z,87.42
2022-10-12T19:16:17.924Z,87.76
2022-10-12T19:18:44.536Z,87.48
2022-10-12T19:21:17.304Z,87.74
2022-10-12T19:23:45.135Z,88.14
2022-10-12T19:26:14.892Z,87.92
2022-10-12T19:28:41.959Z,87.81
2022-10-12T19:31:18.918Z,87.30
2022-10-12T19:33:46.226Z,86.99
2022-10-12T19:36:15.143Z,86.85
2022-10-12T19:38:42.267Z,87.37
2022-10-12T19:41:09.678Z,87.83
2022-10-12T19:43:36.993Z,88.17
2022-10-12T19:46:09.013Z,88.45
2022-10-12T19:48:37.323Z,88.76
2022-10-12T19:51:07.096Z,88.94
2022-10-12T19:53:33.856Z,88.28
2022-10-12T19:56:06.185Z,88.35
2022-10-12T19:58:33.041Z,88.04
2022-10-12T20:01:08.474Z,88.87
2022-10-12T20:03:35.831Z,88.65
2022-10-12T20:06:06.072Z,88.46
2022-10-12T20:08:33.078Z,88.90
2022-10-12T20:10:59.876Z,90.11
2022-10-12T20:13:26.465Z,90.00
2022-10-12T20:15:54.329Z,89.81
2022-10-12T20:18:21.711Z,89.01
2022-10-12T20:20:48.973Z,89.04
2022-10-12T20:23:16.468Z,88.94
2022-10-12T20:25:54.440Z,89.12
2022-10-12T20:28:21.962Z,89.39
2022-10-12T20:30:49.204Z,89.42
2022-10-12T20:33:16.029Z,90.59
2022-10-12T20:35:47.879Z,91.08
2022-10-12T20:38:15.098Z,91.37
2022-10-12T20:40:41.711Z,90.86
2022-10-12T20:43:08.344Z,92.34
2022-10-12T20:45:35.843Z,91.87
2022-10-12T20:48:02.620Z,91.78
2022-10-12T20:50:29.348Z,91.79
2022-10-12T20:52:55.968Z,90.70
2022-10-12T20:55:23.278Z,90.95
2022-10-12T20:57:49.840Z,91.96
2022-10-12T21:00:16.568Z,92.64
2022-10-12T21:02:43.277Z,91.64
2022-10-12T21:05:10.062Z,91.79
2022-10-12T21:07:36.593Z,90.86
2022-10-12T21:10:03.599Z,90.16
2022-10-12T21:12:30.266Z,90.58
2022-10-12T21:14:56.914Z,90.24
2022-10-12T21:17:23.501Z,90.78
2022-10-12T21:19:51.745Z,90.19
2022-10-12T21:22:18.809Z,90.20
2022-10-12T21:24:45.756Z,89.82
2022-10-12T21:27:12.468Z,89.79
2022-10-12T21:29:39.076Z,90.04
2022-10-12T21:32:05.671Z,90.19
2022-10-12T21:34:32.296Z,89.75
2022-10-12T21:36:58.976Z,91.25
2022-10-12T21:39:25.860Z,91.55
2022-10-12T21:41:52.445Z,91.71
2022-10-12T21:44:19.116Z,92.02
2022-10-12T21:46:45.832Z,92.19
2022-10-12T21:49:12.595Z,92.72
2022-10-12T21:51:39.266Z,92.82
2022-10-12T21:54:06.709Z,92.58
2022-10-12T21:56:35.381Z,92.55
2022-10-12T21:59:03.838Z,92.75
2022-10-12T22:01:36.167Z,92.81
2022-10-12T22:04:06.830Z,92.72
2022-10-12T22:06:34.373Z,91.97
2022-10-12T22:09:11.711Z,92.39
2022-10-12T22:11:38.604Z,92.98
2022-10-12T22:14:09.179Z,92.45
2022-10-12T22:16:36.732Z,92.36
2022-10-12T22:19:06.532Z,93.30
2022-10-12T22:21:34.343Z,93.05
2022-10-12T22:24:02.444Z,93.01
2022-10-12T22:26:29.659Z,93.41
2022-10-12T22:28:57.841Z,93.41
2022-10-12T22:31:24.832Z,93.41
2022-10-12T22:33:52.386Z,94.11
2022-10-12T22:36:19.196Z,93.68
2022-10-12T22:38:46.433Z,93.85
2022-10-12T22:41:16.022Z,93.70
2022-10-12T22:43:46.774Z,93.61
2022-10-12T22:46:13.643Z,93.75
2022-10-12T22:48:40.203Z,93.79
2022-10-12T22:51:08.189Z,93.62
2022-10-12T22:53:35.686Z,93.71
2022-10-12T22:56:16.647Z,93.85
2022-10-12T22:58:43.379Z,93.57
2022-10-12T23:01:17.522Z,93.76
2022-10-12T23:03:45.456Z,93.31
2022-10-12T23:06:14.465Z,93.11
2022-10-12T23:08:41.616Z,93.94
2022-10-12T23:11:11.266Z,93.98
2022-10-12T23:13:38.880Z,94.03
2022-10-12T23:16:08.321Z,93.93
2022-10-12T23:18:34.857Z,94.02
2022-10-12T23:21:09.910Z,94.44
2022-10-12T23:23:38.660Z,94.52
2022-10-12T23:26:10.505Z,93.79
2022-10-12T23:28:37.515Z,93.80
2022-10-12T23:31:13.502Z,93.91
2022-10-12T23:33:40.814Z,94.39
2022-10-12T23:36:10.547Z,94.22
2022-10-12T23:38:37.886Z,94.84
2022-10-12T23:41:05.388Z,95.54
2022-10-12T23:43:32.489Z,94.71
2022-10-12T23:46:01.882Z,95.46
2022-10-12T23:48:28.637Z,95.05
2022-10-12T23:50:55.883Z,94.14
2022-10-12T23:53:23.914Z,94.78
2022-10-12T23:55:51.490Z,94.21
2022-10-12T23:58:19.020Z,93.40
